Time;durP1;ratioP1;P1;durP2;ratioP2;P2;SDS_P1;SDS_P2;PMS_P1;PMS_P2;Temp;Humidity;BMP_temperature;BMP_pressure;BME280_temperature;BME280_humidity;BME280_pressure;Samples;Min_cycle;Max_cycle;Signal;HPM_P1;HPM_P2
2023/01/23 00:06:55;;;;;;;44.70;25.40;;;;;;;0.60;97.74;100048.00;434406;1253;98425;-40
2023/01/23 00:17:03;;;;;;;43.20;21.60;;;;;;;0.66;97.90;100057.46;434408;1258;111941;-40
2023/01/23 00:27:10;;;;;;;47.00;21.60;;;;;;;0.70;97.87;100042.46;434382;1256;108047;-41
2023/01/23 00:37:16;;;;;;;48.90;24.20;;;;;;;0.79;97.85;100059.77;434316;1258;99355;-42
2023/01/23 00:47:24;;;;;;;70.10;25.60;;;;;;;0.79;97.87;100071.04;434366;1257;110246;-39
2023/01/23 00:57:31;;;;;;;71.60;28.10;;;;;;;0.66;97.93;100087.66;434458;1258;99231;-39
2023/01/23 01:07:38;;;;;;;42.50;23.70;;;;;;;0.56;97.65;100093.87;434542;1254;111335;-39
2023/01/23 01:17:45;;;;;;;45.50;23.70;;;;;;;0.51;97.70;100105.02;434427;1254;107422;-39
2023/01/23 01:27:54;;;;;;;43.70;21.70;;;;;;;0.54;97.80;100111.38;434405;1257;99118;-39
2023/01/23 01:38:02;;;;;;;43.30;22.40;;;;;;;0.61;97.77;100124.83;434452;1257;108867;-39
2023/01/23 01:48:09;;;;;;;39.00;18.90;;;;;;;0.66;97.75;100130.33;434305;1253;99228;-41
2023/01/23 01:58:20;;;;;;;40.90;18.60;;;;;;;0.69;97.80;100140.13;434363;1254;110651;-39
2023/01/23 02:08:33;;;;;;;42.20;21.50;;;;;;;0.72;97.86;100140.35;434422;1254;107542;-39
2023/01/23 02:18:44;;;;;;;63.20;27.00;;;;;;;0.62;97.73;100147.30;434560;1257;99301;-39
2023/01/23 02:28:54;;;;;;;62.90;26.30;;;;;;;0.51;97.95;100159.90;434480;1257;110632;-41
2023/01/23 02:39:01;;;;;;;45.60;19.80;;;;;;;0.45;97.72;100160.48;434580;1253;106768;-39
2023/01/23 02:49:09;;;;;;;49.60;24.60;;;;;;;0.47;97.83;100151.30;434417;1253;99227;-40
2023/01/23 03:09:41;;;;;;;37.50;19.20;;;;;;;0.57;97.92;100170.10;435117;1253;106993;-39
2023/01/23 03:19:49;;;;;;;46.60;20.80;;;;;;;0.57;97.71;100169.20;435254;1252;98805;-39
2023/01/23 03:50:45;;;;;;;36.30;18.60;;;;;;;0.59;97.79;100170.83;434960;1258;112865;-39
2023/01/23 04:00:52;;;;;;;38.40;19.00;;;;;;;0.58;97.79;100173.97;435116;1253;107794;-39
2023/01/23 04:11:03;;;;;;;39.00;20.30;;;;;;;0.61;97.86;100181.73;435115;1256;98048;-39
2023/01/23 04:21:11;;;;;;;51.10;24.10;;;;;;;0.57;97.87;100185.02;435195;1256;107036;-39
2023/01/23 04:31:18;;;;;;;44.70;22.80;;;;;;;0.48;97.73;100197.23;435163;1257;99224;-39
2023/01/23 04:41:28;;;;;;;35.40;19.10;;;;;;;0.50;97.63;100202.95;435250;1253;110662;-39
2023/01/23 04:51:36;;;;;;;35.90;20.80;;;;;;;0.47;97.76;100206.80;435109;1253;108476;-40
2023/01/23 05:01:44;;;;;;;39.30;18.20;;;;;;;0.51;97.90;100216.38;435106;1256;99250;-39
2023/01/23 05:11:51;;;;;;;38.30;18.20;;;;;;;0.53;97.82;100218.19;435101;1252;107130;-40
2023/01/23 05:21:58;;;;;;;37.60;19.50;;;;;;;0.57;97.91;100229.27;435310;1259;99338;-40
2023/01/23 05:32:06;;;;;;;45.60;21.30;;;;;;;0.56;97.87;100233.49;435061;1257;112103;-40
2023/01/23 05:42:13;;;;;;;43.60;20.80;;;;;;;0.45;98.01;100231.33;435172;1253;107225;-39
2023/01/23 06:02:27;;;;;;;41.10;19.00;;;;;;;0.37;97.92;100256.61;434914;1253;108413;-39
2023/01/23 06:12:35;;;;;;;41.00;19.90;;;;;;;0.39;97.88;100271.70;435102;1252;99257;-39
2023/01/23 06:32:48;;;;;;;36.80;22.20;;;;;;;0.43;98.04;100296.88;435059;1253;109417;-40
2023/01/23 06:42:55;;;;;;;38.90;19.40;;;;;;;0.47;98.16;100310.92;435084;1253;99290;-40
2023/01/23 06:53:04;;;;;;;28.50;17.40;;;;;;;0.50;98.18;100325.08;435014;1253;108604;-40
2023/01/23 07:03:10;;;;;;;40.70;20.30;;;;;;;0.52;98.17;100337.11;435028;1252;97990;-39
2023/01/23 07:13:18;;;;;;;36.00;19.60;;;;;;;0.61;98.36;100348.70;434991;1257;110402;-39
2023/01/23 07:23:25;;;;;;;40.10;20.90;;;;;;;0.70;98.37;100362.17;435060;1258;108182;-43
2023/01/23 07:33:33;;;;;;;38.10;21.60;;;;;;;0.74;98.09;100377.89;435022;1253;99307;-40
2023/01/23 07:43:39;;;;;;;40.80;20.40;;;;;;;0.85;98.27;100394.27;434967;1257;107627;-40
2023/01/23 07:53:46;;;;;;;58.60;26.80;;;;;;;0.92;98.29;100396.80;434955;1256;99226;-40
2023/01/23 08:03:54;;;;;;;59.80;25.60;;;;;;;0.91;98.21;100393.97;435114;1253;111623;-40
2023/01/23 08:14:01;;;;;;;43.00;22.30;;;;;;;0.85;98.02;100384.25;435034;1253;107956;-40
2023/01/23 08:24:08;;;;;;;40.10;22.10;;;;;;;0.88;97.93;100383.97;435140;1253;98016;-41
2023/01/23 08:34:16;;;;;;;41.40;21.50;;;;;;;0.98;98.03;100383.20;435058;1253;111379;-39
2023/01/23 08:44:22;;;;;;;38.30;19.00;;;;;;;0.98;98.09;100395.69;435113;1253;108313;-41
2023/01/23 08:54:30;;;;;;;38.50;20.80;;;;;;;1.03;98.08;100405.38;435145;1255;98019;-40
2023/01/23 09:04:37;;;;;;;36.40;19.80;;;;;;;1.10;98.10;100413.77;435075;1252;109772;-40
2023/01/23 09:14:43;;;;;;;40.90;21.50;;;;;;;1.20;98.19;100422.16;435069;1253;98343;-40
2023/01/23 09:24:51;;;;;;;49.90;24.80;;;;;;;1.15;98.22;100415.93;435104;1253;112299;-39
2023/01/23 09:34:58;;;;;;;44.50;22.10;;;;;;;1.08;98.20;100418.66;435053;1257;107926;-40
2023/01/23 09:55:18;;;;;;;37.90;22.50;;;;;;;1.22;98.45;100417.86;435053;1258;111283;-42
2023/01/23 10:05:30;;;;;;;43.80;23.40;;;;;;;1.24;98.26;100412.27;435073;1257;108218;-38
2023/01/23 10:15:37;;;;;;;40.50;21.80;;;;;;;1.27;98.33;100413.84;435103;1258;99253;-38
2023/01/23 10:25:45;;;;;;;43.60;23.60;;;;;;;1.22;98.40;100413.32;435114;1253;106797;-39
2023/01/23 10:35:56;;;;;;;38.50;23.10;;;;;;;1.31;98.60;100420.73;435092;1253;98850;-40
2023/01/23 10:46:05;;;;;;;43.70;22.80;;;;;;;1.35;98.56;100412.60;435167;1253;111244;-40
2023/01/23 10:56:17;;;;;;;67.70;30.50;;;;;;;1.35;98.51;100409.66;435201;1256;107709;-40
2023/01/23 11:06:27;;;;;;;70.40;30.20;;;;;;;1.30;98.47;100394.24;435002;1253;99223;-40
2023/01/23 11:16:35;;;;;;;52.50;25.60;;;;;;;1.23;98.20;100387.67;435053;1253;110736;-39
2023/01/23 11:26:43;;;;;;;45.90;23.90;;;;;;;1.19;98.14;100379.31;435115;1257;99417;-39
2023/01/23 11:36:53;;;;;;;46.80;23.20;;;;;;;1.24;98.29;100369.89;436364;1256;111628;-40
2023/01/23 11:47:02;;;;;;;;;;;;;;;1.27;98.50;100362.18;435040;1259;107309;-42
2023/01/23 11:57:09;;;;;;;47.70;24.70;;;;;;;1.32;98.43;100364.02;436177;1257;99220;-41
2023/01/23 12:07:19;;;;;;;45.00;24.30;;;;;;;1.36;98.52;100361.05;435164;1253;107340;-40
2023/01/23 12:17:27;;;;;;;47.60;24.90;;;;;;;1.38;98.45;100364.40;434926;1253;98984;-39
2023/01/23 12:37:53;;;;;;;59.20;27.40;;;;;;;1.38;98.53;100363.64;436680;1253;107922;-38
2023/01/23 12:47:58;;;;;;;53.70;26.50;;;;;;;1.52;98.74;100355.94;435066;1253;99212;-40
2023/01/23 12:58:12;;;;;;;66.40;29.50;;;;;;;1.45;98.59;100357.73;435101;1259;107719;-39
2023/01/23 13:08:17;;;;;;;48.30;25.00;;;;;;;1.26;98.62;100360.52;434975;1257;99236;-40
2023/01/23 13:28:35;;;;;;;48.80;24.20;;;;;;;1.35;98.76;100364.67;435322;1259;107241;-39
2023/01/23 13:39:00;;;;;;;51.70;24.40;;;;;;;1.39;98.70;100369.33;438689;1258;99241;-40
2023/01/23 13:59:46;;;;;;;37.60;21.50;;;;;;;1.33;98.85;100371.60;435102;1254;99240;-40
2023/01/23 14:10:15;;;;;;;40.10;21.70;;;;;;;1.25;98.93;100368.13;435006;1253;112421;-40
2023/01/23 14:20:38;;;;;;;46.50;22.00;;;;;;;1.19;99.07;100377.57;435068;1256;108563;-41
2023/01/23 14:30:56;;;;;;;47.00;24.10;;;;;;;1.21;99.14;100385.28;435093;1264;99218;-39
2023/01/23 14:41:05;;;;;;;44.60;22.60;;;;;;;1.20;99.14;100385.16;435071;1257;107826;-39
2023/01/23 14:51:17;;;;;;;46.40;23.00;;;;;;;1.21;99.16;100386.98;434730;1257;99233;-40
2023/01/23 15:01:24;;;;;;;50.30;23.70;;;;;;;1.19;99.04;100391.11;434454;1257;471082;-40
2023/01/23 15:11:32;;;;;;;39.80;20.70;;;;;;;1.15;99.07;100396.53;434695;1254;108823;-40
2023/01/23 15:21:37;;;;;;;46.60;20.20;;;;;;;1.08;99.05;100402.69;434873;1257;99237;-41
2023/01/23 15:31:45;;;;;;;46.80;23.30;;;;;;;1.06;99.12;100405.23;434597;1259;108820;-40
2023/01/23 15:41:55;;;;;;;40.60;21.80;;;;;;;1.04;99.15;100399.00;434768;1264;99237;-38
2023/01/23 15:52:15;;;;;;;50.90;26.20;;;;;;;1.00;99.23;100399.68;434614;1257;110730;-39
2023/01/23 16:02:24;;;;;;;53.60;26.10;;;;;;;0.93;99.23;100404.92;434630;1254;107554;-39
2023/01/23 16:22:46;;;;;;;44.90;23.90;;;;;;;0.86;99.60;100413.81;434654;1254;108404;-39
2023/01/23 16:32:53;;;;;;;49.50;21.90;;;;;;;0.84;99.68;100420.21;434626;1259;98396;-39
2023/01/23 16:43:03;;;;;;;37.80;21.50;;;;;;;0.81;99.80;100422.54;434623;1259;113022;-39
2023/01/23 16:53:12;;;;;;;43.50;22.60;;;;;;;0.80;99.90;100419.38;434591;1254;108620;-40
2023/01/23 17:03:18;;;;;;;51.30;24.50;;;;;;;0.82;99.78;100429.60;434522;1257;98848;-40
2023/01/23 17:13:26;;;;;;;52.30;25.00;;;;;;;0.84;99.93;100436.25;434596;1255;108096;-40
2023/01/23 17:33:40;;;;;;;44.00;23.10;;;;;;;0.87;99.97;100456.27;434481;1254;110674;-40
2023/01/23 17:53:54;;;;;;;36.80;21.60;;;;;;;0.88;100.00;100469.37;434407;1260;99262;-40
2023/01/23 18:04:01;;;;;;;43.70;23.20;;;;;;;0.89;99.96;100474.69;434449;1259;107641;-39
2023/01/23 18:14:15;;;;;;;41.90;22.10;;;;;;;0.89;100.00;100472.30;434477;1254;99120;-40
2023/01/23 18:24:27;;;;;;;;;;;;;;;0.88;99.96;100475.66;434453;1257;111463;-40
2023/01/23 18:34:32;;;;;;;;;;;;;;;0.90;99.87;100482.46;434492;1266;107084;-39
2023/01/23 18:44:40;;;;;;;;;;;;;;;0.88;99.95;100484.88;434323;1257;99269;-40
2023/01/23 18:54:53;;;;;;;;;;;;;;;0.90;99.84;100480.04;434405;1256;106868;-39
2023/01/23 19:04:57;;;;;;;;;;;;;;;0.88;99.90;100478.94;435548;1258;97968;-40
2023/01/23 19:15:04;;;;;;;;;;;;;;;0.89;99.83;100483.52;434574;1257;111713;-39
2023/01/23 19:25:11;;;;;;;;;;;;;;;0.89;99.97;100483.02;434449;1257;107516;-40
2023/01/23 19:35:17;;;;;;;;;;;;;;;0.88;99.96;100480.66;434364;1257;99237;-38
2023/01/23 19:45:23;;;;;;;;;;;;;;;0.89;99.92;100481.63;434449;1262;109155;-39
2023/01/23 19:55:30;;;;;;;;;;;;;;;0.88;100.00;100486.94;434466;1257;99239;-39
2023/01/23 20:05:35;;;;;;;;;;;;;;;0.86;100.00;100492.32;434402;1257;113005;-40
2023/01/23 20:15:41;;;;;;;;;;;;;;;0.87;100.00;100491.86;434351;1256;110127;-40
2023/01/23 20:25:55;;;;;;;;;;;;;;;0.89;100.00;100493.94;434565;1258;99314;-39
2023/01/23 20:36:01;;;;;;;;;;;;;;;0.90;99.94;100491.45;434876;1257;109532;-39
2023/01/23 20:56:09;;;;;;;;;;;;;;;0.92;99.99;100489.03;434383;1266;115226;-40
2023/01/23 21:06:16;;;;;;;;;;;;;;;0.93;100.00;100493.27;434382;1257;108724;-40
2023/01/23 21:16:22;;;;;;;;;;;;;;;0.94;99.93;100498.08;434417;1257;99218;-40
2023/01/23 21:26:28;;;;;;;;;;;;;;;0.92;99.95;100503.75;434399;1257;109398;-39
2023/01/23 21:36:35;;;;;;;;;;;;;;;0.92;99.90;100510.20;434391;1257;98020;-39
2023/01/23 21:46:41;;;;;;;;;;;;;;;0.87;99.98;100516.18;434314;1257;111631;-41
2023/01/23 21:56:46;;;;;;;;;;;;;;;0.86;100.00;100517.35;434422;1267;108376;-41
2023/01/23 22:06:53;;;;;;;;;;;;;;;0.87;100.00;100516.39;434463;1253;97985;-39
2023/01/23 22:16:59;;;;;;;;;;;;;;;0.89;100.00;100517.21;434481;1253;107243;-38
2023/01/23 22:27:04;;;;;;;;;;;;;;;0.89;100.00;100508.85;434352;1257;99275;-38
2023/01/23 22:37:10;;;;;;;;;;;;;;;0.89;100.00;100502.65;434396;1257;111375;-40
2023/01/23 22:47:16;;;;;;;;;;;;;;;0.89;100.00;100501.75;434325;1257;107809;-40
2023/01/23 22:57:21;;;;;;;;;;;;;;;0.92;100.00;100502.21;434463;1256;98354;-41
2023/01/23 23:07:27;;;;;;;;;;;;;;;0.91;99.99;100511.36;434375;1256;108786;-40
2023/01/23 23:17:33;;;;;;;;;;;;;;;0.89;100.00;100510.45;434460;1258;99214;-40
2023/01/23 23:27:39;;;;;;;;;;;;;;;0.89;100.00;100514.86;434490;1257;111432;-40
2023/01/23 23:37:44;;;;;;;;;;;;;;;0.89;100.00;100516.58;434400;1258;107238;-40
2023/01/23 23:47:50;;;;;;;;;;;;;;;0.91;100.00;100521.59;434302;1257;99243;-40
2023/01/23 23:57:56;;;;;;;;;;;;;;;0.91;100.00;100519.48;434381;1256;109364;-39
